createdAt,value
2019-04-16T00:02:38.983Z,8.50
2019-04-16T00:05:12.946Z,8.40
2019-04-16T00:08:19.394Z,8.40
2019-04-16T00:10:42.998Z,8.40
2019-04-16T00:13:13.540Z,8.30
2019-04-16T00:15:41.372Z,8.30
2019-04-16T00:18:09.353Z,8.30
2019-04-16T00:20:46.698Z,8.40
2019-04-16T00:23:20.404Z,8.30
2019-04-16T00:25:47.346Z,8.30
2019-04-16T00:28:14.254Z,8.20
2019-04-16T00:30:41.191Z,8.20
2019-04-16T00:33:10.705Z,8.20
2019-04-16T00:35:36.867Z,8.20
2019-04-16T00:38:03.857Z,8.20
2019-04-16T00:40:30.808Z,8.10
2019-04-16T00:42:58.105Z,8.10
2019-04-16T00:45:25.255Z,8.10
2019-04-16T00:47:52.227Z,8.10
2019-04-16T00:50:19.248Z,8.10
2019-04-16T00:52:46.110Z,8.10
2019-04-16T00:55:14.610Z,8.00
2019-04-16T00:57:41.694Z,8.00
2019-04-16T01:00:09.781Z,7.90
2019-04-16T01:02:36.734Z,7.90
2019-04-16T01:05:04.299Z,7.90
2019-04-16T01:07:31.546Z,7.80
2019-04-16T01:09:58.615Z,7.80
2019-04-16T01:12:25.654Z,7.80
2019-04-16T01:14:52.843Z,7.80
2019-04-16T01:17:19.825Z,7.70
2019-04-16T01:19:46.715Z,7.70
2019-04-16T01:22:16.064Z,7.60
2019-04-16T01:24:42.805Z,7.60
2019-04-16T01:27:09.908Z,7.60
2019-04-16T01:29:36.924Z,7.60
2019-04-16T01:32:22.217Z,7.60
2019-04-16T01:34:57.077Z,7.50
2019-04-16T01:37:58.459Z,7.60
2019-04-16T01:40:34.385Z,7.50
2019-04-16T01:43:01.347Z,7.50
2019-04-16T01:45:29.791Z,7.50
2019-04-16T01:47:57.290Z,7.50
2019-04-16T01:50:24.150Z,7.50
2019-04-16T01:52:51.416Z,7.40
2019-04-16T01:55:19.287Z,7.40
2019-04-16T01:57:46.145Z,7.40
2019-04-16T02:00:13.411Z,7.40
2019-04-16T02:02:40.401Z,7.40
2019-04-16T02:05:07.506Z,7.40
2019-04-16T02:07:34.389Z,7.30
2019-04-16T02:10:05.957Z,7.30
2019-04-16T02:12:30.258Z,7.30
2019-04-16T02:14:57.167Z,7.30
2019-04-16T02:17:26.679Z,7.30
2019-04-16T02:19:52.943Z,7.20
2019-04-16T02:22:19.819Z,7.20
2019-04-16T02:24:47.825Z,7.20
2019-04-16T02:27:16.570Z,7.10
2019-04-16T02:29:43.429Z,7.10
2019-04-16T02:32:10.267Z,7.10
2019-04-16T02:34:38.243Z,7.10
2019-04-16T02:37:05.555Z,7.10
2019-04-16T02:39:47.878Z,7.00
2019-04-16T02:42:01.378Z,7.00
2019-04-16T02:44:28.242Z,7.00
2019-04-16T02:46:55.236Z,6.90
2019-04-16T02:49:24.429Z,6.90
2019-04-16T02:51:56.498Z,6.90
2019-04-16T02:54:34.002Z,7.00
2019-04-16T02:57:18.593Z,6.80
2019-04-16T02:59:47.344Z,6.80
2019-04-16T03:02:32.834Z,6.80
2019-04-16T03:05:07.841Z,6.80
2019-04-16T03:07:35.722Z,6.80
2019-04-16T03:10:03.855Z,6.70
2019-04-16T03:12:32.387Z,6.70
2019-04-16T03:15:01.192Z,6.70
2019-04-16T03:17:34.562Z,6.60
2019-04-16T03:20:03.352Z,6.60
2019-04-16T03:22:33.471Z,6.50
2019-04-16T03:24:59.661Z,6.50
2019-04-16T03:27:26.531Z,6.50
2019-04-16T03:29:53.685Z,6.40
2019-04-16T03:32:20.735Z,6.40
2019-04-16T03:34:50.483Z,6.40
2019-04-16T03:37:17.158Z,6.30
2019-04-16T03:39:44.918Z,6.30
2019-04-16T03:42:13.433Z,6.30
2019-04-16T03:44:40.289Z,6.30
2019-04-16T03:47:07.157Z,6.20
2019-04-16T03:49:34.037Z,6.20
2019-04-16T03:52:00.890Z,6.20
2019-04-16T03:54:27.761Z,6.20
2019-04-16T03:56:54.879Z,6.20
2019-04-16T03:59:21.734Z,6.20
2019-04-16T04:01:48.613Z,6.20
2019-04-16T04:04:15.492Z,6.10
2019-04-16T04:06:42.365Z,6.10
2019-04-16T04:09:09.420Z,6.10
2019-04-16T04:11:40.835Z,6.10
2019-04-16T04:14:05.454Z,6.10
2019-04-16T04:16:33.552Z,6.00
2019-04-16T04:19:01.709Z,6.00
2019-04-16T04:21:28.578Z,6.00
2019-04-16T04:23:57.489Z,6.00
2019-04-16T04:26:24.458Z,6.00
2019-04-16T04:28:52.555Z,6.00
2019-04-16T04:31:19.573Z,6.00
2019-04-16T04:33:46.431Z,5.90
2019-04-16T04:36:13.309Z,5.90
2019-04-16T04:38:40.195Z,5.90
2019-04-16T04:41:07.878Z,5.90
2019-04-16T04:43:35.213Z,5.90
2019-04-16T04:46:02.287Z,5.90
2019-04-16T04:48:29.344Z,5.80
2019-04-16T04:50:56.589Z,5.90
2019-04-16T04:53:23.450Z,5.90
2019-04-16T04:55:50.713Z,5.80
2019-04-16T04:58:17.662Z,5.80
2019-04-16T05:00:44.631Z,5.80
2019-04-16T05:03:15.872Z,5.80
2019-04-16T05:05:47.725Z,5.80
2019-04-16T05:08:14.585Z,5.80
2019-04-16T05:10:43.276Z,5.80
2019-04-16T05:13:10.786Z,5.80
2019-04-16T05:15:37.645Z,5.80
2019-04-16T05:18:05.958Z,5.80
2019-04-16T05:20:33.144Z,5.90
2019-04-16T05:23:00.008Z,5.90
2019-04-16T05:25:33.254Z,6.00
2019-04-16T05:27:56.634Z,6.10
2019-04-16T05:30:23.605Z,6.10
2019-04-16T05:33:10.153Z,6.20
2019-04-16T05:35:38.554Z,6.30
2019-04-16T05:38:06.190Z,6.40
2019-04-16T05:40:35.210Z,6.40
2019-04-16T05:43:02.310Z,6.40
2019-04-16T05:45:29.367Z,6.50
2019-04-16T05:47:56.539Z,6.70
2019-04-16T05:50:28.732Z,6.80
2019-04-16T05:52:53.314Z,6.90
2019-04-16T05:55:31.696Z,7.00
2019-04-16T05:57:58.966Z,7.20
2019-04-16T06:00:34.402Z,7.30
2019-04-16T06:03:01.783Z,7.30
2019-04-16T06:05:29.350Z,7.40
2019-04-16T06:08:09.041Z,7.40
2019-04-16T06:10:37.553Z,7.60
2019-04-16T06:13:18.921Z,7.70
2019-04-16T06:16:05.940Z,7.80
2019-04-16T06:18:42.911Z,8.00
2019-04-16T06:21:26.839Z,8.10
2019-04-16T06:24:06.363Z,8.20
2019-04-16T06:27:08.329Z,8.20
2019-04-16T06:30:01.396Z,8.30
2019-04-16T06:32:45.819Z,8.30
2019-04-16T06:35:44.477Z,8.40
2019-04-16T06:38:15.432Z,8.50
2019-04-16T06:41:14.333Z,8.50
2019-04-16T06:43:48.365Z,8.60
2019-04-16T06:46:29.040Z,8.80
2019-04-16T06:49:21.832Z,8.90
2019-04-16T06:52:16.677Z,9.00
2019-04-16T06:54:56.338Z,9.00
2019-04-16T06:57:48.111Z,9.20
2019-04-16T07:00:50.908Z,9.20
2019-04-16T07:03:39.968Z,9.30
2019-04-16T07:06:35.945Z,9.50
2019-04-16T07:09:41.710Z,9.70
2019-04-16T07:12:20.355Z,9.80
2019-04-16T07:14:48.318Z,10.00
2019-04-16T07:17:18.074Z,10.10
2019-04-16T07:19:45.216Z,10.20
2019-04-16T07:22:12.490Z,10.40
2019-04-16T07:24:40.066Z,10.50
2019-04-16T07:27:07.719Z,10.50
2019-04-16T07:29:39.840Z,10.60
2019-04-16T07:32:33.336Z,10.70
2019-04-16T07:35:19.273Z,10.80
2019-04-16T07:38:15.278Z,11.00
2019-04-16T07:41:00.906Z,11.20
2019-04-16T07:43:46.814Z,11.30
2019-04-16T07:46:47.070Z,11.40
2019-04-16T07:49:45.903Z,11.50
2019-04-16T07:52:31.750Z,11.70
2019-04-16T07:55:17.442Z,11.90
2019-04-16T07:57:44.510Z,12.00
2019-04-16T08:00:13.245Z,12.10
2019-04-16T08:02:40.492Z,12.30
2019-04-16T08:05:09.139Z,12.40
2019-04-16T08:07:36.881Z,12.50
2019-04-16T08:10:04.596Z,12.60
2019-04-16T08:12:33.454Z,12.80
2019-04-16T08:15:12.553Z,12.90
2019-04-16T08:17:31.852Z,13.10
2019-04-16T08:19:59.038Z,13.30
2019-04-16T08:22:27.232Z,13.40
2019-04-16T08:25:02.503Z,13.40
2019-04-16T08:27:27.042Z,13.50
2019-04-16T08:29:54.303Z,13.60
2019-04-16T08:32:21.990Z,13.60
2019-04-16T08:34:48.980Z,13.80
2019-04-16T08:37:16.201Z,14.00
2019-04-16T08:39:43.211Z,14.10
2019-04-16T08:42:10.519Z,14.30
2019-04-16T08:44:37.686Z,14.50
2019-04-16T08:47:04.845Z,14.60
2019-04-16T08:49:31.894Z,14.70
2019-04-16T08:51:59.277Z,14.80
2019-04-16T08:54:26.555Z,14.90
2019-04-16T08:56:53.867Z,15.20
2019-04-16T08:59:20.894Z,15.40
2019-04-16T09:01:48.283Z,15.60
2019-04-16T09:04:16.193Z,15.60
2019-04-16T09:06:46.395Z,15.80
2019-04-16T09:09:24.781Z,16.00
2019-04-16T09:11:58.955Z,16.10
2019-04-16T09:14:28.680Z,16.20
2019-04-16T09:17:10.986Z,16.30
2019-04-16T09:19:40.277Z,16.50
2019-04-16T09:22:07.574Z,16.80
2019-04-16T09:24:41.367Z,16.90
2019-04-16T09:27:33.963Z,17.00
2019-04-16T09:30:18.580Z,17.20
2019-04-16T09:33:00.387Z,17.40
2019-04-16T09:35:38.506Z,17.60
2019-04-16T09:38:24.808Z,17.80
2019-04-16T09:41:06.513Z,18.10
2019-04-16T09:43:35.550Z,18.20
2019-04-16T09:46:10.229Z,18.40
2019-04-16T09:48:34.739Z,18.60
2019-04-16T09:51:01.423Z,18.60
2019-04-16T09:53:33.973Z,18.70
2019-04-16T09:56:00.295Z,18.60
2019-04-16T09:58:27.485Z,18.50
2019-04-16T10:01:02.627Z,18.60
2019-04-16T10:03:37.069Z,18.90
2019-04-16T10:06:05.731Z,19.20
2019-04-16T10:08:33.625Z,19.40
2019-04-16T10:11:05.579Z,19.60
2019-04-16T10:13:34.191Z,19.80
2019-04-16T10:15:59.770Z,19.90
2019-04-16T10:18:26.843Z,20.10
2019-04-16T10:20:54.069Z,20.50
2019-04-16T10:23:52.772Z,20.80
2019-04-16T10:26:20.213Z,20.90
2019-04-16T10:28:47.514Z,20.90
2019-04-16T10:31:17.234Z,21.10
2019-04-16T10:33:44.500Z,21.50
2019-04-16T10:36:11.744Z,21.70
2019-04-16T10:38:48.701Z,21.80
2019-04-16T10:41:19.969Z,22.30
2019-04-16T10:44:10.180Z,23.00
2019-04-16T10:46:48.484Z,24.20
2019-04-16T10:49:38.205Z,26.20
2019-04-16T10:52:23.551Z,28.00
2019-04-16T10:55:18.689Z,29.40
2019-04-16T10:58:02.817Z,30.30
2019-04-16T11:01:01.301Z,30.20
2019-04-16T11:03:39.474Z,30.50
2019-04-16T11:06:22.536Z,31.00
2019-04-16T11:08:49.497Z,31.30
2019-04-16T11:11:16.530Z,31.40
2019-04-16T11:13:58.895Z,31.70
2019-04-16T11:16:17.114Z,31.70
2019-04-16T11:18:44.448Z,31.30
2019-04-16T11:21:11.610Z,31.10
2019-04-16T11:23:38.740Z,31.50
2019-04-16T11:26:05.830Z,31.90
2019-04-16T11:28:32.954Z,32.50
2019-04-16T11:31:01.074Z,33.30
2019-04-16T11:33:28.572Z,32.90
2019-04-16T11:35:55.697Z,33.30
2019-04-16T11:38:22.681Z,34.30
2019-04-16T11:40:50.165Z,34.80
2019-04-16T11:43:17.380Z,35.00
2019-04-16T11:45:44.638Z,34.20
2019-04-16T11:48:11.655Z,33.60
2019-04-16T11:50:38.640Z,34.00
2019-04-16T11:53:05.878Z,33.50
2019-04-16T11:55:32.847Z,34.30
2019-04-16T11:57:59.844Z,34.40
2019-04-16T12:00:34.703Z,35.10
2019-04-16T12:03:08.876Z,35.70
2019-04-16T12:05:54.125Z,35.30
2019-04-16T12:08:46.446Z,35.80
2019-04-16T12:11:48.580Z,35.80
2019-04-16T12:14:30.775Z,35.90
2019-04-16T12:17:19.313Z,35.50
2019-04-16T12:20:06.277Z,36.00
2019-04-16T12:22:42.078Z,35.50
2019-04-16T12:25:29.307Z,35.40
2019-04-16T12:28:12.511Z,34.30
2019-04-16T12:31:16.645Z,34.90
2019-04-16T12:33:48.138Z,35.30
2019-04-16T12:36:41.178Z,36.10
2019-04-16T12:39:40.180Z,34.80
2019-04-16T12:42:17.391Z,35.10
2019-04-16T12:45:09.671Z,34.70
2019-04-16T12:47:44.170Z,34.40
2019-04-16T12:50:33.715Z,34.40
2019-04-16T12:53:08.856Z,35.50
2019-04-16T12:55:54.558Z,36.20
2019-04-16T12:58:37.317Z,34.30
2019-04-16T13:01:24.105Z,34.00
2019-04-16T13:03:59.063Z,34.20
2019-04-16T13:06:49.040Z,35.10
2019-04-16T13:09:23.681Z,34.70
2019-04-16T13:11:56.422Z,34.20
2019-04-16T13:14:39.378Z,35.00
2019-04-16T13:17:15.182Z,35.00
2019-04-16T13:19:57.326Z,34.60
2019-04-16T13:22:28.343Z,33.50
2019-04-16T13:25:17.473Z,33.10
2019-04-16T13:27:47.903Z,33.30
2019-04-16T13:30:14.285Z,34.10
2019-04-16T13:32:41.416Z,34.40
2019-04-16T13:35:08.794Z,33.90
2019-04-16T13:37:37.857Z,34.50
2019-04-16T13:40:13.140Z,34.30
2019-04-16T13:42:40.535Z,34.40
2019-04-16T13:45:31.176Z,34.00
2019-04-16T13:48:14.787Z,33.80
2019-04-16T13:50:39.848Z,33.90
2019-04-16T13:53:28.706Z,34.00
2019-04-16T13:56:17.672Z,33.70
2019-04-16T13:59:02.593Z,32.80
2019-04-16T14:01:32.921Z,32.60
2019-04-16T14:03:59.956Z,31.40
2019-04-16T14:06:27.214Z,31.50
2019-04-16T14:08:54.225Z,31.00
2019-04-16T14:11:21.209Z,31.30
2019-04-16T14:13:50.172Z,31.70
2019-04-16T14:16:17.126Z,30.60
2019-04-16T14:18:44.217Z,30.50
2019-04-16T14:21:11.127Z,28.90
2019-04-16T14:23:38.973Z,28.90
2019-04-16T14:26:06.062Z,28.00
2019-04-16T14:28:34.622Z,27.40
2019-04-16T14:31:02.063Z,27.60
2019-04-16T14:33:40.280Z,27.20
2019-04-16T14:36:07.060Z,26.90
2019-04-16T14:38:39.742Z,26.70
2019-04-16T14:41:07.685Z,26.70
2019-04-16T14:43:37.517Z,26.70
2019-04-16T14:46:08.404Z,26.30
2019-04-16T14:48:33.745Z,26.50
2019-04-16T14:51:08.779Z,26.90
2019-04-16T14:53:56.037Z,26.80
2019-04-16T14:56:29.151Z,26.90
2019-04-16T14:59:07.333Z,27.90
2019-04-16T15:01:54.005Z,28.80
2019-04-16T15:04:40.222Z,28.90
2019-04-16T15:07:20.090Z,28.30
2019-04-16T15:10:08.203Z,27.90
2019-04-16T15:12:41.110Z,27.60
2019-04-16T15:15:17.770Z,27.70
2019-04-16T15:17:48.626Z,27.30
2019-04-16T15:20:37.773Z,27.00
2019-04-16T15:23:24.122Z,26.80
2019-04-16T15:25:56.767Z,26.80
2019-04-16T15:28:53.184Z,27.20
2019-04-16T15:31:39.405Z,26.80
2019-04-16T15:34:26.369Z,26.90
2019-04-16T15:37:02.410Z,27.40
2019-04-16T15:39:36.300Z,27.10
2019-04-16T15:42:21.738Z,27.00
2019-04-16T15:44:57.407Z,26.10
2019-04-16T15:47:32.570Z,26.50
2019-04-16T15:50:05.915Z,26.70
2019-04-16T15:52:46.676Z,26.80
2019-04-16T15:55:32.337Z,26.70
2019-04-16T15:58:09.548Z,26.00
2019-04-16T16:00:54.290Z,25.80
2019-04-16T16:03:56.067Z,25.10
2019-04-16T16:06:24.630Z,24.70
2019-04-16T16:08:59.354Z,24.40
2019-04-16T16:11:35.123Z,24.30
2019-04-16T16:14:02.298Z,24.30
2019-04-16T16:16:41.802Z,24.00
2019-04-16T16:18:58.807Z,23.80
2019-04-16T16:21:25.902Z,23.70
2019-04-16T16:23:53.058Z,23.60
2019-04-16T16:26:20.250Z,23.30
2019-04-16T16:28:47.410Z,23.10
2019-04-16T16:31:14.530Z,23.00
2019-04-16T16:33:41.802Z,22.80
2019-04-16T16:36:09.206Z,22.50
2019-04-16T16:38:36.523Z,22.40
2019-04-16T16:41:03.734Z,22.30
2019-04-16T16:43:30.950Z,22.30
2019-04-16T16:46:29.878Z,22.00
2019-04-16T16:48:57.054Z,21.70
2019-04-16T16:51:24.171Z,21.50
2019-04-16T16:54:10.397Z,21.30
2019-04-16T16:56:42.831Z,21.10
2019-04-16T16:59:22.219Z,20.90
2019-04-16T17:02:00.017Z,20.90
2019-04-16T17:04:33.015Z,20.90
2019-04-16T17:07:00.953Z,20.70
2019-04-16T17:09:31.278Z,20.50
2019-04-16T17:11:58.542Z,20.30
2019-04-16T17:14:25.518Z,20.30
2019-04-16T17:16:52.855Z,20.20
2019-04-16T17:19:20.063Z,19.90
2019-04-16T17:21:47.115Z,19.60
2019-04-16T17:24:14.314Z,19.50
2019-04-16T17:26:41.519Z,19.30
2019-04-16T17:29:08.812Z,19.00
2019-04-16T17:31:36.248Z,18.90
2019-04-16T17:34:03.790Z,18.60
2019-04-16T17:36:31.006Z,18.40
2019-04-16T17:38:58.218Z,18.20
2019-04-16T17:41:30.418Z,18.10
2019-04-16T17:44:15.930Z,18.00
2019-04-16T17:47:01.972Z,17.90
2019-04-16T17:49:37.035Z,17.70
2019-04-16T17:52:27.823Z,17.70
2019-04-16T17:55:03.583Z,17.70
2019-04-16T17:57:34.907Z,17.50
2019-04-16T18:00:40.342Z,17.50
2019-04-16T18:03:26.038Z,17.30
2019-04-16T18:05:59.216Z,17.30
2019-04-16T18:08:46.062Z,17.20
2019-04-16T18:11:20.382Z,17.10
2019-04-16T18:13:57.931Z,17.00
2019-04-16T18:16:43.324Z,16.90
2019-04-16T18:19:42.950Z,16.80
2019-04-16T18:22:38.774Z,16.70
2019-04-16T18:25:22.058Z,16.60
2019-04-16T18:27:55.698Z,16.60
2019-04-16T18:30:39.495Z,16.50
2019-04-16T18:33:16.132Z,16.40
2019-04-16T18:36:20.860Z,16.40
2019-04-16T18:39:07.865Z,16.40
2019-04-16T18:41:40.175Z,16.30
2019-04-16T18:44:29.033Z,16.30
2019-04-16T18:47:05.956Z,16.30
2019-04-16T18:49:33.746Z,16.20
2019-04-16T18:52:01.014Z,16.20
2019-04-16T18:54:28.298Z,16.10
2019-04-16T18:56:55.574Z,16.10
2019-04-16T18:59:22.868Z,16.10
2019-04-16T19:01:53.978Z,16.00
2019-04-16T19:04:21.105Z,15.90
2019-04-16T19:06:48.383Z,15.90
2019-04-16T19:09:15.587Z,15.80
2019-04-16T19:11:43.095Z,15.80
2019-04-16T19:14:13.180Z,15.80
2019-04-16T19:16:39.954Z,15.70
2019-04-16T19:19:07.200Z,15.60
2019-04-16T19:21:34.431Z,15.60
2019-04-16T19:24:01.743Z,15.50
2019-04-16T19:26:30.370Z,15.40
2019-04-16T19:28:58.939Z,15.40
2019-04-16T19:31:26.410Z,15.40
2019-04-16T19:33:53.666Z,15.30
2019-04-16T19:36:24.730Z,15.30
2019-04-16T19:38:49.968Z,15.30
2019-04-16T19:41:17.075Z,15.30
2019-04-16T19:43:44.174Z,15.20
2019-04-16T19:46:15.347Z,15.20
2019-04-16T19:48:40.671Z,15.20
2019-04-16T19:51:08.913Z,15.10
2019-04-16T19:53:36.400Z,15.10
2019-04-16T19:56:03.603Z,15.10
2019-04-16T19:58:30.725Z,15.10
2019-04-16T20:00:59.126Z,15.10
2019-04-16T20:03:30.106Z,15.00
2019-04-16T20:05:56.229Z,14.90
2019-04-16T20:08:23.482Z,14.80
2019-04-16T20:10:50.553Z,14.70
2019-04-16T20:13:17.698Z,14.70
2019-04-16T20:15:45.153Z,14.70
2019-04-16T20:18:12.342Z,14.60
2019-04-16T20:20:39.793Z,14.60
2019-04-16T20:23:07.126Z,14.50
2019-04-16T20:25:35.081Z,14.40
2019-04-16T20:28:02.420Z,14.30
2019-04-16T20:30:30.299Z,14.30
2019-04-16T20:32:57.702Z,14.30
2019-04-16T20:35:24.957Z,14.30
2019-04-16T20:37:53.975Z,14.20
2019-04-16T20:40:21.256Z,14.10
2019-04-16T20:42:48.447Z,14.10
2019-04-16T20:45:16.706Z,14.00
2019-04-16T20:47:43.939Z,13.90
2019-04-16T20:50:11.259Z,14.00
2019-04-16T20:52:40.096Z,13.90
2019-04-16T20:55:08.738Z,13.90
2019-04-16T20:57:38.983Z,13.80
2019-04-16T21:00:10.260Z,13.80
2019-04-16T21:02:34.913Z,13.70
2019-04-16T21:05:04.389Z,13.70
2019-04-16T21:07:31.222Z,13.60
2019-04-16T21:10:02.516Z,13.60
2019-04-16T21:12:27.676Z,13.50
2019-04-16T21:14:55.459Z,13.50
2019-04-16T21:17:22.709Z,13.50
2019-04-16T21:19:49.922Z,13.50
2019-04-16T21:22:17.414Z,13.40
2019-04-16T21:24:45.118Z,13.40
2019-04-16T21:27:12.502Z,13.50
2019-04-16T21:29:39.795Z,13.50
2019-04-16T21:32:10.801Z,13.40
2019-04-16T21:34:43.611Z,13.40
2019-04-16T21:37:18.038Z,13.40
2019-04-16T21:39:52.628Z,13.40
2019-04-16T21:42:19.610Z,13.30
2019-04-16T21:44:46.814Z,13.30
2019-04-16T21:47:14.034Z,13.20
2019-04-16T21:49:45.044Z,13.20
2019-04-16T21:52:10.198Z,13.10
2019-04-16T21:54:37.946Z,13.10
2019-04-16T21:57:05.591Z,13.00
2019-04-16T21:59:32.874Z,13.00
2019-04-16T22:02:01.194Z,13.00
2019-04-16T22:04:28.547Z,13.10
2019-04-16T22:06:56.034Z,13.00
2019-04-16T22:09:23.317Z,12.90
2019-04-16T22:11:50.605Z,12.90
2019-04-16T22:14:22.014Z,12.80
2019-04-16T22:16:47.422Z,12.80
2019-04-16T22:19:15.012Z,13.00
2019-04-16T22:21:42.853Z,12.90
2019-04-16T22:24:11.069Z,13.10
2019-04-16T22:26:38.286Z,13.00
2019-04-16T22:29:05.538Z,13.00
2019-04-16T22:31:32.706Z,13.00
2019-04-16T22:34:00.128Z,13.00
2019-04-16T22:36:27.370Z,12.90
2019-04-16T22:39:00.430Z,12.90
2019-04-16T22:41:43.942Z,12.90
2019-04-16T22:44:22.702Z,12.80
2019-04-16T22:46:56.330Z,12.80
2019-04-16T22:49:23.895Z,12.70
2019-04-16T22:51:51.087Z,12.60
2019-04-16T22:54:20.692Z,12.60
2019-04-16T22:56:57.756Z,12.70
2019-04-16T22:59:25.818Z,12.70
2019-04-16T23:01:53.446Z,12.60
2019-04-16T23:04:22.770Z,12.60
2019-04-16T23:06:50.007Z,12.50
2019-04-16T23:09:18.012Z,12.50
2019-04-16T23:11:45.139Z,12.40
2019-04-16T23:14:12.327Z,12.40
2019-04-16T23:16:42.730Z,12.50
2019-04-16T23:19:08.530Z,12.50
2019-04-16T23:21:35.782Z,12.40
2019-04-16T23:24:03.299Z,12.40
2019-04-16T23:26:33.020Z,12.30
2019-04-16T23:28:59.581Z,12.30
2019-04-16T23:31:26.824Z,12.20
2019-04-16T23:33:54.083Z,12.20
2019-04-16T23:36:21.310Z,12.20
2019-04-16T23:38:48.494Z,12.20
2019-04-16T23:41:16.755Z,12.30
2019-04-16T23:43:56.850Z,12.20
2019-04-16T23:46:42.101Z,12.40
2019-04-16T23:49:43.836Z,12.30
2019-04-16T23:52:14.039Z,12.20
2019-04-16T23:54:48.131Z,12.20
2019-04-16T23:57:24.900Z,12.20
